sensor_id;sensor_type;location;lat;lon;timestamp;pressure;altitude;pressure_sealevel;temperature;humidity
22389;BME280;11362;48.102;11.620;2023-04-16T00:01:07;94958.16;;;21.35;31.02
22389;BME280;11362;48.102;11.620;2023-04-16T00:03:33;94951.09;;;21.34;30.81
22389;BME280;11362;48.102;11.620;2023-04-16T00:05:58;94959.72;;;21.36;30.95
22389;BME280;11362;48.102;11.620;2023-04-16T00:08:23;94955.81;;;21.33;30.85
22389;BME280;11362;48.102;11.620;2023-04-16T00:10:50;94955.81;;;21.33;30.94
22389;BME280;11362;48.102;11.620;2023-04-16T00:13:15;94957.38;;;21.34;30.75
22389;BME280;11362;48.102;11.620;2023-04-16T00:15:41;94960.56;;;21.33;30.47
22389;BME280;11362;48.102;11.620;2023-04-16T00:18:06;94956.59;;;21.34;30.99
22389;BME280;11362;48.102;11.620;2023-04-16T00:20:31;94960.56;;;21.33;31.06
22389;BME280;11362;48.102;11.620;2023-04-16T00:22:57;94960.13;;;21.34;31.02
22389;BME280;11362;48.102;11.620;2023-04-16T00:25:22;94962.13;;;21.34;30.95
22389;BME280;11362;48.102;11.620;2023-04-16T00:27:47;94959.78;;;21.32;31.12
22389;BME280;11362;48.102;11.620;2023-04-16T00:30:12;94967.66;;;21.34;30.95
22389;BME280;11362;48.102;11.620;2023-04-16T00:32:38;94966.84;;;21.33;31.05
22389;BME280;11362;48.102;11.620;2023-04-16T00:35:03;94972.38;;;21.33;31.08
22389;BME280;11362;48.102;11.620;2023-04-16T00:37:29;94954.25;;;21.32;30.91
22389;BME280;11362;48.102;11.620;2023-04-16T00:39:54;94960.56;;;21.33;30.95
22389;BME280;11362;48.102;11.620;2023-04-16T00:42:19;94959.78;;;21.32;31.07
22389;BME280;11362;48.102;11.620;2023-04-16T00:44:44;94954.25;;;21.32;30.99
22389;BME280;11362;48.102;11.620;2023-04-16T00:47:10;94954.25;;;21.32;31.11
22389;BME280;11362;48.102;11.620;2023-04-16T00:49:35;94960.56;;;21.33;30.82
22389;BME280;11362;48.102;11.620;2023-04-16T00:52:01;94967.66;;;21.34;30.97
22389;BME280;11362;48.102;11.620;2023-04-16T00:54:27;94960.97;;;21.31;31.05
22389;BME280;11362;48.102;11.620;2023-04-16T00:56:52;94964.50;;;21.32;31.00
22389;BME280;11362;48.102;11.620;2023-04-16T00:59:18;94954.66;;;21.31;30.92
22389;BME280;11362;48.102;11.620;2023-04-16T01:01:43;94952.69;;;21.31;31.02
22389;BME280;11362;48.102;11.620;2023-04-16T01:04:09;94956.63;;;21.30;30.88
22389;BME280;11362;48.102;11.620;2023-04-16T01:06:34;94953.44;;;21.32;31.06
22389;BME280;11362;48.102;11.620;2023-04-16T01:08:59;94960.97;;;21.31;30.92
22389;BME280;11362;48.102;11.620;2023-04-16T01:11:25;94955.03;;;21.33;30.94
22389;BME280;11362;48.102;11.620;2023-04-16T01:13:50;94957.81;;;21.33;31.04
22389;BME280;11362;48.102;11.620;2023-04-16T01:16:15;94956.22;;;21.32;30.85
22389;BME280;11362;48.102;11.620;2023-04-16T01:18:41;94960.16;;;21.31;30.91
22389;BME280;11362;48.102;11.620;2023-04-16T01:21:06;94959.41;;;21.30;30.84
22389;BME280;11362;48.102;11.620;2023-04-16T01:23:31;94972.03;;;21.31;31.19
22389;BME280;11362;48.102;11.620;2023-04-16T01:25:57;94970.44;;;21.30;31.11
22389;BME280;11362;48.102;11.620;2023-04-16T01:28:22;94970.44;;;21.30;30.99
22389;BME280;11362;48.102;11.620;2023-04-16T01:30:47;94967.69;;;21.30;30.99
22389;BME280;11362;48.102;11.620;2023-04-16T01:33:13;94970.03;;;21.32;30.79
22389;BME280;11362;48.102;11.620;2023-04-16T01:35:40;94976.75;;;21.31;30.88
22389;BME280;11362;48.102;11.620;2023-04-16T01:38:07;94973.97;;;21.31;30.75
22389;BME280;11362;48.102;11.620;2023-04-16T01:40:33;94973.22;;;21.30;31.01
22389;BME280;11362;48.102;11.620;2023-04-16T01:42:58;94981.06;;;21.32;30.98
22389;BME280;11362;48.102;11.620;2023-04-16T01:45:24;94985.47;;;21.29;31.15
22389;BME280;11362;48.102;11.620;2023-04-16T01:47:49;94977.19;;;21.29;31.00
22389;BME280;11362;48.102;11.620;2023-04-16T01:50:15;94986.22;;;21.30;30.80
22389;BME280;11362;48.102;11.620;2023-04-16T01:52:40;94983.47;;;21.30;30.84
22389;BME280;11362;48.102;11.620;2023-04-16T01:55:06;94979.50;;;21.31;30.85
22389;BME280;11362;48.102;11.620;2023-04-16T01:57:31;94979.16;;;21.29;31.10
22389;BME280;11362;48.102;11.620;2023-04-16T01:59:56;94977.94;;;21.30;31.05
22389;BME280;11362;48.102;11.620;2023-04-16T02:02:22;94978.75;;;21.30;31.13
22389;BME280;11362;48.102;11.620;2023-04-16T02:04:47;94973.22;;;21.30;31.03
22389;BME280;11362;48.102;11.620;2023-04-16T02:07:12;94978.75;;;21.30;30.79
22389;BME280;11362;48.102;11.620;2023-04-16T02:09:39;94984.66;;;21.29;31.02
22389;BME280;11362;48.102;11.620;2023-04-16T02:12:05;94989.00;;;21.30;30.92
22389;BME280;11362;48.102;11.620;2023-04-16T02:14:32;94981.91;;;21.29;31.09
22389;BME280;11362;48.102;11.620;2023-04-16T02:16:58;94984.66;;;21.29;30.86
22389;BME280;11362;48.102;11.620;2023-04-16T02:19:24;94985.47;;;21.29;30.82
22389;BME280;11362;48.102;11.620;2023-04-16T02:21:52;94983.47;;;21.30;30.91
22389;BME280;11362;48.102;11.620;2023-04-16T02:24:19;94984.25;;;21.30;31.09
22389;BME280;11362;48.102;11.620;2023-04-16T02:26:44;94987.44;;;21.29;30.82
22389;BME280;11362;48.102;11.620;2023-04-16T02:29:10;94981.91;;;21.29;30.88
22389;BME280;11362;48.102;11.620;2023-04-16T02:31:35;94980.34;;;21.28;31.10
22389;BME280;11362;48.102;11.620;2023-04-16T02:34:01;94985.88;;;21.28;30.99
22389;BME280;11362;48.102;11.620;2023-04-16T02:36:26;94985.88;;;21.28;31.04
22389;BME280;11362;48.102;11.620;2023-04-16T02:38:52;94983.88;;;21.28;31.03
22389;BME280;11362;48.102;11.620;2023-04-16T02:41:17;94984.66;;;21.29;30.74
22389;BME280;11362;48.102;11.620;2023-04-16T02:43:42;94983.88;;;21.28;30.94
22389;BME280;11362;48.102;11.620;2023-04-16T02:46:08;94985.47;;;21.29;30.92
22389;BME280;11362;48.102;11.620;2023-04-16T02:48:33;94990.59;;;21.27;31.12
22389;BME280;11362;48.102;11.620;2023-04-16T02:50:58;94992.59;;;21.27;30.84
22389;BME280;11362;48.102;11.620;2023-04-16T02:53:24;94988.63;;;21.28;30.78
22389;BME280;11362;48.102;11.620;2023-04-16T02:55:54;94993.34;;;21.27;30.96
22389;BME280;11362;48.102;11.620;2023-04-16T02:58:20;94984.31;;;21.27;31.00
22389;BME280;11362;48.102;11.620;2023-04-16T03:00:46;94993.34;;;21.27;31.04
22389;BME280;11362;48.102;11.620;2023-04-16T03:03:11;94989.03;;;21.26;30.99
22389;BME280;11362;48.102;11.620;2023-04-16T03:05:36;94998.88;;;21.27;31.01
22389;BME280;11362;48.102;11.620;2023-04-16T03:08:02;95001.63;;;21.27;30.89
22389;BME280;11362;48.102;11.620;2023-04-16T03:10:28;95007.97;;;21.28;31.10
22389;BME280;11362;48.102;11.620;2023-04-16T03:12:53;95007.16;;;21.27;30.88
22389;BME280;11362;48.102;11.620;2023-04-16T03:15:18;95002.44;;;21.28;30.99
22389;BME280;11362;48.102;11.620;2023-04-16T03:17:43;95002.44;;;21.28;30.96
22389;BME280;11362;48.102;11.620;2023-04-16T03:20:09;95011.91;;;21.27;31.35
22389;BME280;11362;48.102;11.620;2023-04-16T03:22:34;95010.72;;;21.28;30.84
22389;BME280;11362;48.102;11.620;2023-04-16T03:25:00;95011.91;;;21.27;30.93
22389;BME280;11362;48.102;11.620;2023-04-16T03:27:25;95010.34;;;21.26;30.97
22389;BME280;11362;48.102;11.620;2023-04-16T03:29:50;95017.44;;;21.27;31.20
22389;BME280;11362;48.102;11.620;2023-04-16T03:32:15;95016.66;;;21.26;31.01
22389;BME280;11362;48.102;11.620;2023-04-16T03:34:41;95018.22;;;21.27;30.70
22389;BME280;11362;48.102;11.620;2023-04-16T03:37:06;95015.88;;;21.26;31.00
22389;BME280;11362;48.102;11.620;2023-04-16T03:39:32;95016.66;;;21.26;30.97
22389;BME280;11362;48.102;11.620;2023-04-16T03:41:57;95020.59;;;21.25;31.08
22389;BME280;11362;48.102;11.620;2023-04-16T03:44:22;95021.41;;;21.26;30.97
22389;BME280;11362;48.102;11.620;2023-04-16T03:46:48;95017.44;;;21.27;31.02
22389;BME280;11362;48.102;11.620;2023-04-16T03:49:13;95020.22;;;21.27;30.90
22389;BME280;11362;48.102;11.620;2023-04-16T03:51:38;95015.88;;;21.26;30.86
22389;BME280;11362;48.102;11.620;2023-04-16T03:54:04;95020.59;;;21.25;30.97
22389;BME280;11362;48.102;11.620;2023-04-16T03:56:29;95018.22;;;21.27;31.10
22389;BME280;11362;48.102;11.620;2023-04-16T03:58:54;95025.31;;;21.28;31.03
22389;BME280;11362;48.102;11.620;2023-04-16T04:01:19;95031.63;;;21.29;30.98
22389;BME280;11362;48.102;11.620;2023-04-16T04:03:45;95030.06;;;21.28;31.00
22389;BME280;11362;48.102;11.620;2023-04-16T04:06:10;95032.47;;;21.26;31.01
22389;BME280;11362;48.102;11.620;2023-04-16T04:08:35;95039.53;;;21.27;31.11
22389;BME280;11362;48.102;11.620;2023-04-16T04:11:01;95045.06;;;21.27;31.00
22389;BME280;11362;48.102;11.620;2023-04-16T04:13:26;95043.88;;;21.28;30.96
22389;BME280;11362;48.102;11.620;2023-04-16T04:15:51;95042.31;;;21.27;30.93
22389;BME280;11362;48.102;11.620;2023-04-16T04:18:17;95039.53;;;21.27;31.10
22389;BME280;11362;48.102;11.620;2023-04-16T04:20:43;95040.75;;;21.26;31.08
22389;BME280;11362;48.102;11.620;2023-04-16T04:23:08;95040.31;;;21.27;30.99
22389;BME280;11362;48.102;11.620;2023-04-16T04:25:34;95040.75;;;21.26;30.92
22389;BME280;11362;48.102;11.620;2023-04-16T04:27:59;95045.84;;;21.27;30.93
22389;BME280;11362;48.102;11.620;2023-04-16T04:30:24;95043.06;;;21.27;30.86
22389;BME280;11362;48.102;11.620;2023-04-16T04:32:49;95040.75;;;21.26;30.97
22389;BME280;11362;48.102;11.620;2023-04-16T04:35:15;95046.25;;;21.26;31.06
22389;BME280;11362;48.102;11.620;2023-04-16T04:37:40;95047.03;;;21.26;31.03
22389;BME280;11362;48.102;11.620;2023-04-16T04:40:06;95049.78;;;21.26;30.79
22389;BME280;11362;48.102;11.620;2023-04-16T04:42:31;95056.13;;;21.27;30.96
22389;BME280;11362;48.102;11.620;2023-04-16T04:44:57;95056.88;;;21.27;30.96
22389;BME280;11362;48.102;11.620;2023-04-16T04:47:22;95054.56;;;21.26;31.09
22389;BME280;11362;48.102;11.620;2023-04-16T04:49:47;95056.13;;;21.27;30.78
22389;BME280;11362;48.102;11.620;2023-04-16T04:52:12;95063.59;;;21.26;30.94
22389;BME280;11362;48.102;11.620;2023-04-16T04:54:38;95055.31;;;21.26;31.03
22389;BME280;11362;48.102;11.620;2023-04-16T04:57:03;95060.84;;;21.26;30.90
22389;BME280;11362;48.102;11.620;2023-04-16T04:59:28;95062.84;;;21.26;31.11
22389;BME280;11362;48.102;11.620;2023-04-16T05:01:54;95072.69;;;21.27;30.89
22389;BME280;11362;48.102;11.620;2023-04-16T05:04:19;95075.06;;;21.25;31.05
22389;BME280;11362;48.102;11.620;2023-04-16T05:06:44;95066.75;;;21.25;30.88
22389;BME280;11362;48.102;11.620;2023-04-16T05:09:10;95071.91;;;21.26;30.94
22389;BME280;11362;48.102;11.620;2023-04-16T05:11:35;95073.88;;;21.26;31.00
22389;BME280;11362;48.102;11.620;2023-04-16T05:14:00;95071.13;;;21.26;31.10
22389;BME280;11362;48.102;11.620;2023-04-16T05:16:25;95071.13;;;21.26;30.97
22389;BME280;11362;48.102;11.620;2023-04-16T05:18:51;95076.66;;;21.26;31.12
22389;BME280;11362;48.102;11.620;2023-04-16T05:21:16;95075.84;;;21.25;30.86
22389;BME280;11362;48.102;11.620;2023-04-16T05:23:41;95085.72;;;21.26;31.08
22389;BME280;11362;48.102;11.620;2023-04-16T05:26:06;95084.94;;;21.26;30.89
22389;BME280;11362;48.102;11.620;2023-04-16T05:28:32;95077.81;;;21.25;31.09
22389;BME280;11362;48.102;11.620;2023-04-16T05:30:57;95080.56;;;21.25;31.05
22389;BME280;11362;48.102;11.620;2023-04-16T05:33:22;95084.94;;;21.26;31.10
22389;BME280;11362;48.102;11.620;2023-04-16T05:35:48;95092.03;;;21.27;30.88
22389;BME280;11362;48.102;11.620;2023-04-16T05:38:13;95092.03;;;21.27;31.04
22389;BME280;11362;48.102;11.620;2023-04-16T05:40:38;95092.03;;;21.27;31.14
22389;BME280;11362;48.102;11.620;2023-04-16T05:43:03;95093.63;;;21.24;30.92
22389;BME280;11362;48.102;11.620;2023-04-16T05:45:29;95098.75;;;21.26;31.22
22389;BME280;11362;48.102;11.620;2023-04-16T05:47:54;95102.69;;;21.25;31.02
22389;BME280;11362;48.102;11.620;2023-04-16T05:50:19;95099.91;;;21.25;31.05
22389;BME280;11362;48.102;11.620;2023-04-16T05:52:44;95101.50;;;21.26;31.10
22389;BME280;11362;48.102;11.620;2023-04-16T05:55:10;95101.91;;;21.24;31.09
22389;BME280;11362;48.102;11.620;2023-04-16T05:57:35;95112.97;;;21.24;31.03
22389;BME280;11362;48.102;11.620;2023-04-16T06:00:00;95114.16;;;21.23;31.12
22389;BME280;11362;48.102;11.620;2023-04-16T06:02:26;95119.25;;;21.25;31.09
22389;BME280;11362;48.102;11.620;2023-04-16T06:04:51;95119.25;;;21.25;31.04
22389;BME280;11362;48.102;11.620;2023-04-16T06:07:16;95111.75;;;21.25;30.96
22389;BME280;11362;48.102;11.620;2023-04-16T06:09:43;95117.28;;;21.25;30.93
22389;BME280;11362;48.102;11.620;2023-04-16T06:12:09;95119.25;;;21.25;31.17
22389;BME280;11362;48.102;11.620;2023-04-16T06:14:34;95115.31;;;21.26;31.12
22389;BME280;11362;48.102;11.620;2023-04-16T06:16:59;95119.69;;;21.23;30.98
22389;BME280;11362;48.102;11.620;2023-04-16T06:19:25;95123.63;;;21.26;31.19
22389;BME280;11362;48.102;11.620;2023-04-16T06:21:50;95123.19;;;21.27;31.09
22389;BME280;11362;48.102;11.620;2023-04-16T06:24:15;95125.19;;;21.27;30.97
22389;BME280;11362;48.102;11.620;2023-04-16T06:26:40;95123.63;;;21.26;30.97
22389;BME280;11362;48.102;11.620;2023-04-16T06:29:06;95132.66;;;21.26;31.05
22389;BME280;11362;48.102;11.620;2023-04-16T06:31:31;95127.94;;;21.27;31.08
22389;BME280;11362;48.102;11.620;2023-04-16T06:33:56;95120.84;;;21.26;31.10
22389;BME280;11362;48.102;11.620;2023-04-16T06:36:21;95129.13;;;21.26;31.09
22389;BME280;11362;48.102;11.620;2023-04-16T06:38:47;95129.13;;;21.26;31.20
22389;BME280;11362;48.102;11.620;2023-04-16T06:41:15;95127.94;;;21.27;31.10
22389;BME280;11362;48.102;11.620;2023-04-16T06:43:40;95122.41;;;21.27;30.99
22389;BME280;11362;48.102;11.620;2023-04-16T06:46:05;95131.09;;;21.25;31.17
22389;BME280;11362;48.102;11.620;2023-04-16T06:48:31;95135.44;;;21.26;31.23
22389;BME280;11362;48.102;11.620;2023-04-16T06:50:56;95139.00;;;21.27;31.10
22389;BME280;11362;48.102;11.620;2023-04-16T06:53:22;95138.19;;;21.26;31.01
22389;BME280;11362;48.102;11.620;2023-04-16T06:55:47;95144.50;;;21.27;31.02
22389;BME280;11362;48.102;11.620;2023-04-16T06:58:13;95153.56;;;21.27;30.96
22389;BME280;11362;48.102;11.620;2023-04-16T07:00:38;95146.84;;;21.28;31.06
22389;BME280;11362;48.102;11.620;2023-04-16T07:03:03;95150.03;;;21.27;30.91
22389;BME280;11362;48.102;11.620;2023-04-16T07:05:29;95150.81;;;21.27;31.16
22389;BME280;11362;48.102;11.620;2023-04-16T07:07:54;95152.00;;;21.26;30.96
22389;BME280;11362;48.102;11.620;2023-04-16T07:10:19;95153.19;;;21.25;30.92
22389;BME280;11362;48.102;11.620;2023-04-16T07:12:45;95154.00;;;21.26;31.14
22389;BME280;11362;48.102;11.620;2023-04-16T07:15:10;95155.56;;;21.27;31.02
22389;BME280;11362;48.102;11.620;2023-04-16T07:17:35;95151.25;;;21.26;31.10
22389;BME280;11362;48.102;11.620;2023-04-16T07:20:00;95149.63;;;21.25;31.09
22389;BME280;11362;48.102;11.620;2023-04-16T07:22:26;95155.97;;;21.25;31.15
22389;BME280;11362;48.102;11.620;2023-04-16T07:24:51;95148.47;;;21.26;30.94
22389;BME280;11362;48.102;11.620;2023-04-16T07:27:16;95147.66;;;21.29;31.06
22389;BME280;11362;48.102;11.620;2023-04-16T07:29:41;95142.94;;;21.26;31.18
22389;BME280;11362;48.102;11.620;2023-04-16T07:32:07;95156.34;;;21.27;31.06
22389;BME280;11362;48.102;11.620;2023-04-16T07:34:32;95152.81;;;21.27;31.12
22389;BME280;11362;48.102;11.620;2023-04-16T07:36:57;95150.81;;;21.27;31.12
22389;BME280;11362;48.102;11.620;2023-04-16T07:39:23;95152.81;;;21.27;31.04
22389;BME280;11362;48.102;11.620;2023-04-16T07:41:48;95159.09;;;21.27;31.12
22389;BME280;11362;48.102;11.620;2023-04-16T07:44:13;95159.53;;;21.26;31.01
22389;BME280;11362;48.102;11.620;2023-04-16T07:46:39;95166.63;;;21.27;31.13
22389;BME280;11362;48.102;11.620;2023-04-16T07:49:04;95169.38;;;21.27;31.27
22389;BME280;11362;48.102;11.620;2023-04-16T07:51:29;95169.38;;;21.27;31.19
22389;BME280;11362;48.102;11.620;2023-04-16T07:53:54;95168.19;;;21.28;31.13
22389;BME280;11362;48.102;11.620;2023-04-16T07:56:20;95174.47;;;21.28;31.31
22389;BME280;11362;48.102;11.620;2023-04-16T07:58:45;95179.22;;;21.28;31.13
22389;BME280;11362;48.102;11.620;2023-04-16T08:01:10;95177.66;;;21.27;31.19
22389;BME280;11362;48.102;11.620;2023-04-16T08:03:36;95176.47;;;21.28;30.98
22389;BME280;11362;48.102;11.620;2023-04-16T08:06:01;95174.47;;;21.28;31.31
22389;BME280;11362;48.102;11.620;2023-04-16T08:08:26;95176.09;;;21.26;31.01
22389;BME280;11362;48.102;11.620;2023-04-16T08:10:52;95178.44;;;21.27;31.37
22389;BME280;11362;48.102;11.620;2023-04-16T08:13:17;95181.63;;;21.26;31.23
22389;BME280;11362;48.102;11.620;2023-04-16T08:15:43;95185.94;;;21.27;31.04
22389;BME280;11362;48.102;11.620;2023-04-16T08:18:08;95190.69;;;21.26;31.09
22389;BME280;11362;48.102;11.620;2023-04-16T08:20:33;95190.28;;;21.28;31.09
22389;BME280;11362;48.102;11.620;2023-04-16T08:22:59;95189.47;;;21.27;31.34
22389;BME280;11362;48.102;11.620;2023-04-16T08:25:24;95189.91;;;21.26;31.20
22389;BME280;11362;48.102;11.620;2023-04-16T08:27:49;95188.72;;;21.27;30.96
22389;BME280;11362;48.102;11.620;2023-04-16T08:30:15;95183.19;;;21.27;31.39
22389;BME280;11362;48.102;11.620;2023-04-16T08:32:41;95191.06;;;21.28;31.35
22389;BME280;11362;48.102;11.620;2023-04-16T08:35:08;95188.72;;;21.27;31.40
22389;BME280;11362;48.102;11.620;2023-04-16T08:37:33;95193.03;;;21.28;31.22
22389;BME280;11362;48.102;11.620;2023-04-16T08:39:58;95196.56;;;21.28;31.28
22389;BME280;11362;48.102;11.620;2023-04-16T08:42:31;95189.47;;;21.27;31.04
22389;BME280;11362;48.102;11.620;2023-04-16T08:45:07;95194.25;;;21.27;31.16
22389;BME280;11362;48.102;11.620;2023-04-16T08:47:33;95194.25;;;21.27;31.22
22389;BME280;11362;48.102;11.620;2023-04-16T08:49:59;95198.56;;;21.28;31.26
22389;BME280;11362;48.102;11.620;2023-04-16T08:52:27;95201.34;;;21.28;31.28
22389;BME280;11362;48.102;11.620;2023-04-16T08:55:05;95212.00;;;21.29;31.14
22389;BME280;11362;48.102;11.620;2023-04-16T08:57:47;95208.44;;;21.29;31.10
22389;BME280;11362;48.102;11.620;2023-04-16T09:00:15;95209.22;;;21.29;31.33
22389;BME280;11362;48.102;11.620;2023-04-16T09:02:41;95212.00;;;21.29;31.16
22389;BME280;11362;48.102;11.620;2023-04-16T09:05:07;95210.81;;;21.27;31.05
22389;BME280;11362;48.102;11.620;2023-04-16T09:07:33;95213.16;;;21.28;31.29
22389;BME280;11362;48.102;11.620;2023-04-16T09:09:59;95215.53;;;21.30;31.35
22389;BME280;11362;48.102;11.620;2023-04-16T09:12:25;95223.81;;;21.30;31.34
22389;BME280;11362;48.102;11.620;2023-04-16T09:14:50;95220.28;;;21.29;31.26
22389;BME280;11362;48.102;11.620;2023-04-16T09:17:17;95219.47;;;21.29;31.38
22389;BME280;11362;48.102;11.620;2023-04-16T09:19:43;95224.19;;;21.28;31.31
22389;BME280;11362;48.102;11.620;2023-04-16T09:22:08;95232.09;;;21.30;31.32
22389;BME280;11362;48.102;11.620;2023-04-16T09:24:34;95225.00;;;21.29;31.25
22389;BME280;11362;48.102;11.620;2023-04-16T09:26:59;95222.25;;;21.29;31.21
22389;BME280;11362;48.102;11.620;2023-04-16T09:29:40;95219.88;;;21.27;31.35
22389;BME280;11362;48.102;11.620;2023-04-16T09:32:08;95219.47;;;21.29;31.36
22389;BME280;11362;48.102;11.620;2023-04-16T09:34:34;95221.44;;;21.28;31.14
22389;BME280;11362;48.102;11.620;2023-04-16T09:37:17;95220.66;;;21.28;31.26
22389;BME280;11362;48.102;11.620;2023-04-16T09:39:43;95218.28;;;21.30;31.36
22389;BME280;11362;48.102;11.620;2023-04-16T09:42:09;95225.00;;;21.29;31.46
22389;BME280;11362;48.102;11.620;2023-04-16T09:44:35;95226.56;;;21.30;31.44
22389;BME280;11362;48.102;11.620;2023-04-16T09:47:05;95217.91;;;21.28;31.27
22389;BME280;11362;48.102;11.620;2023-04-16T09:49:33;95218.28;;;21.30;31.42
22389;BME280;11362;48.102;11.620;2023-04-16T09:51:59;95225.00;;;21.29;31.46
22389;BME280;11362;48.102;11.620;2023-04-16T09:54:24;95231.31;;;21.29;31.37
22389;BME280;11362;48.102;11.620;2023-04-16T09:56:50;95230.91;;;21.31;31.33
22389;BME280;11362;48.102;11.620;2023-04-16T09:59:19;95229.34;;;21.30;31.41
22389;BME280;11362;48.102;11.620;2023-04-16T10:01:45;95225.81;;;21.29;31.35
22389;BME280;11362;48.102;11.620;2023-04-16T10:04:10;95225.00;;;21.29;31.10
22389;BME280;11362;48.102;11.620;2023-04-16T10:06:35;95235.25;;;21.28;31.49
22389;BME280;11362;48.102;11.620;2023-04-16T10:09:06;95231.72;;;21.28;31.23
22389;BME280;11362;48.102;11.620;2023-04-16T10:11:31;95234.47;;;21.28;31.29
22389;BME280;11362;48.102;11.620;2023-04-16T10:13:57;95237.25;;;21.28;31.53
22389;BME280;11362;48.102;11.620;2023-04-16T10:16:22;95238.44;;;21.27;31.38
22389;BME280;11362;48.102;11.620;2023-04-16T10:18:48;95240.00;;;21.28;31.30
22389;BME280;11362;48.102;11.620;2023-04-16T10:21:13;95228.97;;;21.28;31.49
22389;BME280;11362;48.102;11.620;2023-04-16T10:23:39;95233.69;;;21.27;31.47
22389;BME280;11362;48.102;11.620;2023-04-16T10:26:04;95230.53;;;21.29;31.41
22389;BME280;11362;48.102;11.620;2023-04-16T10:28:30;95232.91;;;21.27;31.30
22389;BME280;11362;48.102;11.620;2023-04-16T10:30:57;95238.00;;;21.28;31.51
22389;BME280;11362;48.102;11.620;2023-04-16T10:33:30;95232.09;;;21.30;31.36
22389;BME280;11362;48.102;11.620;2023-04-16T10:36:16;95230.53;;;21.29;31.36
22389;BME280;11362;48.102;11.620;2023-04-16T10:38:46;95225.00;;;21.29;31.42
22389;BME280;11362;48.102;11.620;2023-04-16T10:41:12;95229.34;;;21.30;31.41
22389;BME280;11362;48.102;11.620;2023-04-16T10:43:43;95223.44;;;21.28;31.50
22389;BME280;11362;48.102;11.620;2023-04-16T10:46:24;95235.25;;;21.28;31.53
22389;BME280;11362;48.102;11.620;2023-04-16T10:48:52;95230.53;;;21.29;31.29
22389;BME280;11362;48.102;11.620;2023-04-16T10:51:32;95234.47;;;21.28;31.51
22389;BME280;11362;48.102;11.620;2023-04-16T10:56:33;95247.09;;;21.29;31.46
22389;BME280;11362;48.102;11.620;2023-04-16T10:58:59;95236.06;;;21.29;31.37
22389;BME280;11362;48.102;11.620;2023-04-16T11:01:32;95242.38;;;21.29;31.50
22389;BME280;11362;48.102;11.620;2023-04-16T11:03:59;95248.66;;;21.30;31.59
22389;BME280;11362;48.102;11.620;2023-04-16T11:06:25;95252.22;;;21.30;31.53
22389;BME280;11362;48.102;11.620;2023-04-16T11:08:51;95247.09;;;21.29;31.52
22389;BME280;11362;48.102;11.620;2023-04-16T11:11:17;95245.53;;;21.28;31.73
22389;BME280;11362;48.102;11.620;2023-04-16T11:13:43;95248.28;;;21.28;31.71
22389;BME280;11362;48.102;11.620;2023-04-16T11:16:09;95241.97;;;21.27;31.72
22389;BME280;11362;48.102;11.620;2023-04-16T11:18:35;95247.91;;;21.26;31.37
22389;BME280;11362;48.102;11.620;2023-04-16T11:21:00;95251.06;;;21.28;31.66
22389;BME280;11362;48.102;11.620;2023-04-16T11:23:26;95248.28;;;21.28;31.81
22389;BME280;11362;48.102;11.620;2023-04-16T11:25:51;95246.72;;;21.27;31.54
22389;BME280;11362;48.102;11.620;2023-04-16T11:28:16;95246.72;;;21.27;31.53
22389;BME280;11362;48.102;11.620;2023-04-16T11:30:42;95250.25;;;21.27;31.48
22389;BME280;11362;48.102;11.620;2023-04-16T11:33:08;95255.78;;;21.27;31.47
22389;BME280;11362;48.102;11.620;2023-04-16T11:35:34;95260.53;;;21.27;31.50
22389;BME280;11362;48.102;11.620;2023-04-16T11:37:59;95254.22;;;21.26;31.65
22389;BME280;11362;48.102;11.620;2023-04-16T11:40:28;95255.00;;;21.27;31.65
22389;BME280;11362;48.102;11.620;2023-04-16T11:42:54;95258.53;;;21.27;31.41
22389;BME280;11362;48.102;11.620;2023-04-16T11:45:19;95259.34;;;21.28;31.49
22389;BME280;11362;48.102;11.620;2023-04-16T11:47:50;95250.25;;;21.27;31.51
22389;BME280;11362;48.102;11.620;2023-04-16T11:50:17;95257.78;;;21.27;31.28
22389;BME280;11362;48.102;11.620;2023-04-16T11:52:42;95262.91;;;21.25;31.54
22389;BME280;11362;48.102;11.620;2023-04-16T11:55:08;95259.75;;;21.26;31.63
22389;BME280;11362;48.102;11.620;2023-04-16T11:57:33;95260.53;;;21.27;31.51
22389;BME280;11362;48.102;11.620;2023-04-16T11:59:59;95260.91;;;21.29;31.75
22389;BME280;11362;48.102;11.620;2023-04-16T12:02:44;95267.63;;;21.28;31.42
22389;BME280;11362;48.102;11.620;2023-04-16T12:08:02;95269.19;;;21.29;31.51
22389;BME280;11362;48.102;11.620;2023-04-16T12:10:28;95266.44;;;21.29;31.60
22389;BME280;11362;48.102;11.620;2023-04-16T12:13:09;95268.81;;;21.27;31.58
22389;BME280;11362;48.102;11.620;2023-04-16T12:15:50;95268.03;;;21.26;31.29
22389;BME280;11362;48.102;11.620;2023-04-16T12:18:21;95268.81;;;21.27;31.48
22389;BME280;11362;48.102;11.620;2023-04-16T12:20:47;95268.41;;;21.25;31.47
22389;BME280;11362;48.102;11.620;2023-04-16T12:23:26;95273.56;;;21.26;31.40
22389;BME280;11362;48.102;11.620;2023-04-16T12:25:52;95272.78;;;21.26;31.47
22389;BME280;11362;48.102;11.620;2023-04-16T12:28:32;95276.31;;;21.26;31.51
22389;BME280;11362;48.102;11.620;2023-04-16T12:30:57;95275.53;;;21.26;31.50
22389;BME280;11362;48.102;11.620;2023-04-16T12:33:23;95281.06;;;21.26;31.32
22389;BME280;11362;48.102;11.620;2023-04-16T12:35:48;95274.75;;;21.25;31.49
22389;BME280;11362;48.102;11.620;2023-04-16T12:38:13;95286.59;;;21.26;31.67
22389;BME280;11362;48.102;11.620;2023-04-16T12:40:39;95277.13;;;21.27;31.53
22389;BME280;11362;48.102;11.620;2023-04-16T12:43:04;95279.47;;;21.25;31.58
22389;BME280;11362;48.102;11.620;2023-04-16T12:45:30;95271.97;;;21.25;31.66
22389;BME280;11362;48.102;11.620;2023-04-16T12:47:55;95277.13;;;21.27;31.71
22389;BME280;11362;48.102;11.620;2023-04-16T12:50:21;95279.88;;;21.27;31.62